Terminal Aerodrome Forecast
Issued by NWS

Home | Current Version | Previous Version | Text Only | Print | Product List | Glossary Off
Versions: 1 2 3 4 5 6 7 8 9 10 11 12 13

000
FTUS45 KGGW 240800 AAA
TAFOLF
TAF AMD
KOLF 240827Z 2408/2506 VRB05KT P6SM VCSH OVC100
     FM241200 27008KT P6SM SCT070
     FM241800 28017KT P6SM SCT090
     FM250000 29006KT P6SM SCT100=

USA.gov is the U.S. government's official web portal to all federal, state and local government web resources and services.